createdAt,value
2019-03-29T00:02:59.078Z,9.20
2019-03-29T00:18:28.503Z,9.20
2019-03-29T00:44:20.882Z,9.20
2019-03-29T00:59:50.965Z,9.20
2019-03-29T01:05:00.580Z,9.20
2019-03-29T01:12:45.970Z,9.20
2019-03-29T01:15:21.695Z,9.20
2019-03-29T01:17:56.723Z,9.20
2019-03-29T01:25:41.581Z,9.20
2019-03-29T01:36:02.068Z,9.20
2019-03-29T01:41:13.104Z,9.30
2019-03-29T01:43:48.224Z,9.30
2019-03-29T01:46:23.280Z,9.30
2019-03-29T01:56:43.235Z,9.30
2019-03-29T01:59:18.765Z,9.30
2019-03-29T02:04:29.672Z,9.30
2019-03-29T02:07:04.690Z,9.30
2019-03-29T02:09:40.115Z,9.30
2019-03-29T02:14:50.086Z,9.30
2019-03-29T02:17:25.638Z,9.30
2019-03-29T02:20:00.685Z,9.40
2019-03-29T02:22:36.299Z,9.40
2019-03-29T02:25:13.441Z,9.40
2019-03-29T02:27:48.497Z,9.40
2019-03-29T02:32:58.112Z,9.30
2019-03-29T02:35:33.534Z,9.30
2019-03-29T02:38:08.899Z,9.30
2019-03-29T02:45:55.346Z,9.30
2019-03-29T02:48:31.927Z,9.40
2019-03-29T02:51:07.001Z,9.30
2019-03-29T02:53:43.103Z,9.30
2019-03-29T02:56:19.038Z,9.40
2019-03-29T02:58:55.402Z,9.30
2019-03-29T03:14:24.500Z,9.40
2019-03-29T03:16:59.939Z,9.40
2019-03-29T03:27:20.185Z,9.40
2019-03-29T03:29:55.496Z,9.30
2019-03-29T03:45:27.155Z,9.30
2019-03-29T03:50:44.405Z,9.30
2019-03-29T04:01:04.763Z,9.40
2019-03-29T04:08:50.268Z,9.30
2019-03-29T04:11:25.849Z,9.40
2019-03-29T04:14:01.276Z,9.30
2019-03-29T04:16:36.413Z,9.30
2019-03-29T04:21:49.828Z,9.40
2019-03-29T04:32:10.707Z,9.30
2019-03-29T04:45:08.101Z,9.30
2019-03-29T04:50:18.006Z,9.30
2019-03-29T04:52:53.062Z,9.30
2019-03-29T05:05:47.745Z,9.40
2019-03-29T05:16:07.946Z,9.30
2019-03-29T05:47:07.349Z,9.70
2019-03-29T05:49:43.741Z,9.80
2019-03-29T05:52:19.281Z,9.70
2019-03-29T05:57:29.806Z,9.70
2019-03-29T06:00:08.852Z,9.80
2019-03-29T06:02:44.949Z,9.80
2019-03-29T06:15:41.385Z,10.00
2019-03-29T06:18:16.434Z,10.00
2019-03-29T06:23:27.967Z,10.10
2019-03-29T06:26:03.738Z,10.10
2019-03-29T06:31:13.617Z,10.20
2019-03-29T06:33:48.695Z,10.30
2019-03-29T06:39:01.087Z,10.40
2019-03-29T06:41:35.955Z,10.40
2019-03-29T06:44:11.077Z,10.50
2019-03-29T06:46:46.623Z,10.50
2019-03-29T06:49:22.813Z,10.60
2019-03-29T06:54:32.395Z,10.60
2019-03-29T06:57:07.740Z,10.60
2019-03-29T06:59:44.115Z,10.70
2019-03-29T07:02:19.183Z,10.70
2019-03-29T07:10:05.210Z,10.90
2019-03-29T07:17:49.915Z,11.00
2019-03-29T07:22:59.758Z,11.20
2019-03-29T07:25:35.781Z,11.30
2019-03-29T07:28:12.216Z,11.30
2019-03-29T07:30:47.316Z,11.40
2019-03-29T07:33:22.456Z,11.40
2019-03-29T07:35:58.948Z,11.40
2019-03-29T07:38:34.054Z,11.50
2019-03-29T07:41:09.232Z,11.50
2019-03-29T07:43:44.334Z,11.50
2019-03-29T07:46:19.940Z,11.60
2019-03-29T07:56:41.617Z,11.70
2019-03-29T07:59:18.043Z,11.70
2019-03-29T08:01:53.191Z,11.80
2019-03-29T08:07:06.240Z,12.10
2019-03-29T08:09:43.338Z,12.10
2019-03-29T08:12:19.795Z,12.10
2019-03-29T08:14:54.915Z,12.20
2019-03-29T08:17:30.123Z,12.30
2019-03-29T08:20:37.470Z,12.40
2019-03-29T08:22:43.374Z,12.50
2019-03-29T08:25:18.816Z,12.70
2019-03-29T08:27:54.000Z,12.90
2019-03-29T08:35:38.765Z,13.10
2019-03-29T08:38:14.213Z,13.20
2019-03-29T08:40:49.392Z,13.10
2019-03-29T08:43:25.476Z,13.30
2019-03-29T08:46:00.577Z,13.40
2019-03-29T08:48:36.858Z,13.40
2019-03-29T08:51:12.349Z,13.40
2019-03-29T08:53:47.790Z,13.50
2019-03-29T08:56:22.897Z,13.60
2019-03-29T08:58:59.814Z,13.50
2019-03-29T09:01:35.347Z,13.50
2019-03-29T09:04:12.004Z,13.50
2019-03-29T09:06:53.188Z,13.60
2019-03-29T09:09:24.046Z,13.50
2019-03-29T09:12:13.354Z,13.50
2019-03-29T09:14:37.202Z,13.40
2019-03-29T09:19:47.386Z,13.40
2019-03-29T09:24:57.582Z,13.40
2019-03-29T09:27:33.102Z,13.20
2019-03-29T09:30:08.708Z,13.10
2019-03-29T09:32:43.863Z,13.10
2019-03-29T09:35:19.095Z,13.10
2019-03-29T09:37:56.525Z,13.10
2019-03-29T09:40:31.738Z,13.10
2019-03-29T09:43:08.806Z,13.00
2019-03-29T09:48:20.955Z,12.90
2019-03-29T09:50:57.105Z,12.80
2019-03-29T09:58:45.059Z,12.50
2019-03-29T10:01:20.906Z,12.50
2019-03-29T10:03:56.583Z,12.60
2019-03-29T10:11:41.923Z,12.70
2019-03-29T10:19:27.489Z,12.80
2019-03-29T10:22:03.702Z,12.80
2019-03-29T10:24:38.857Z,12.80
2019-03-29T10:27:14.873Z,12.80
2019-03-29T10:29:50.014Z,12.80
2019-03-29T10:32:25.091Z,12.80
2019-03-29T10:35:00.623Z,12.80
2019-03-29T10:37:36.025Z,12.70
2019-03-29T10:40:12.556Z,12.90
2019-03-29T10:45:26.088Z,13.00
2019-03-29T10:48:06.126Z,13.10
2019-03-29T10:50:43.197Z,13.20
2019-03-29T10:53:19.813Z,13.20
2019-03-29T10:55:54.876Z,13.30
2019-03-29T10:58:31.659Z,13.40
2019-03-29T11:01:07.335Z,13.40
2019-03-29T11:03:46.057Z,13.50
2019-03-29T11:06:21.219Z,13.60
2019-03-29T11:08:56.731Z,13.60
2019-03-29T11:11:32.276Z,13.60
2019-03-29T11:14:07.455Z,13.60
2019-03-29T11:19:19.219Z,13.70
2019-03-29T11:21:55.295Z,13.70
2019-03-29T11:24:31.358Z,13.70
2019-03-29T11:27:07.846Z,13.70
2019-03-29T11:32:19.020Z,13.50
2019-03-29T11:34:54.071Z,13.60
2019-03-29T11:37:29.219Z,13.70
2019-03-29T11:40:07.321Z,13.80
2019-03-29T11:42:42.870Z,13.90
2019-03-29T11:48:07.518Z,14.30
2019-03-29T11:50:32.197Z,14.30
2019-03-29T11:53:07.365Z,14.30
2019-03-29T11:55:43.746Z,14.30
2019-03-29T11:58:19.021Z,14.20
2019-03-29T12:03:30.055Z,14.10
2019-03-29T12:06:05.208Z,13.90
2019-03-29T12:08:41.694Z,13.90
2019-03-29T12:11:16.773Z,13.80
2019-03-29T12:13:51.942Z,13.80
2019-03-29T12:16:27.491Z,13.90
2019-03-29T12:21:40.133Z,14.10
2019-03-29T12:24:15.594Z,14.30
2019-03-29T12:26:51.142Z,14.40
2019-03-29T12:29:26.299Z,14.40
2019-03-29T12:32:04.004Z,14.40
2019-03-29T12:34:39.734Z,14.50
2019-03-29T12:37:14.815Z,14.40
2019-03-29T12:39:49.981Z,14.30
2019-03-29T12:42:27.297Z,14.30
2019-03-29T12:45:02.448Z,14.20
2019-03-29T12:47:37.661Z,14.30
2019-03-29T12:50:14.324Z,14.40
2019-03-29T12:52:49.427Z,14.30
2019-03-29T12:55:29.304Z,14.40
2019-03-29T12:58:04.523Z,14.60
2019-03-29T13:00:39.939Z,14.60
2019-03-29T13:03:15.289Z,14.60
2019-03-29T13:05:50.461Z,14.50
2019-03-29T13:08:25.556Z,14.40
2019-03-29T13:11:01.753Z,14.20
2019-03-29T13:13:36.879Z,14.20
2019-03-29T13:16:11.992Z,14.10
2019-03-29T13:18:47.228Z,13.90
2019-03-29T13:21:22.380Z,13.80
2019-03-29T13:23:58.221Z,13.90
2019-03-29T13:26:35.713Z,13.80
2019-03-29T13:29:11.846Z,13.80
2019-03-29T13:31:47.465Z,13.80
2019-03-29T13:34:22.576Z,13.80
2019-03-29T13:37:01.155Z,13.80
2019-03-29T13:39:36.923Z,13.90
2019-03-29T13:42:12.059Z,13.90
2019-03-29T13:44:47.590Z,14.00
2019-03-29T13:47:24.572Z,14.00
2019-03-29T13:50:01.018Z,14.00
2019-03-29T13:52:36.062Z,13.90
2019-03-29T13:55:13.716Z,13.90
2019-03-29T13:57:50.232Z,13.90
2019-03-29T14:00:28.092Z,13.90
2019-03-29T14:08:16.435Z,13.70
2019-03-29T14:10:51.604Z,13.70
2019-03-29T14:13:26.820Z,13.60
2019-03-29T14:16:02.065Z,13.60
2019-03-29T14:18:38.454Z,13.50
2019-03-29T14:21:13.615Z,13.30
2019-03-29T14:23:48.854Z,13.30
2019-03-29T14:26:24.006Z,13.20
2019-03-29T14:29:00.201Z,13.20
2019-03-29T14:31:35.810Z,13.20
2019-03-29T14:34:10.875Z,13.20
2019-03-29T14:36:46.013Z,13.30
2019-03-29T14:39:21.155Z,13.30
2019-03-29T14:41:56.595Z,13.30
2019-03-29T14:44:32.091Z,13.40
2019-03-29T14:47:08.186Z,13.40
2019-03-29T14:49:43.662Z,13.40
2019-03-29T14:52:19.123Z,13.50
2019-03-29T14:54:54.847Z,13.60
2019-03-29T14:57:31.297Z,13.60
2019-03-29T15:00:14.219Z,13.60
2019-03-29T15:02:51.410Z,13.50
2019-03-29T15:05:27.879Z,13.50
2019-03-29T15:08:03.419Z,13.50
2019-03-29T15:10:39.135Z,13.50
2019-03-29T15:13:15.130Z,13.50
2019-03-29T15:15:53.297Z,13.40
2019-03-29T15:18:28.423Z,13.40
2019-03-29T15:21:04.649Z,13.40
2019-03-29T15:23:44.560Z,13.50
2019-03-29T15:26:20.160Z,13.50
2019-03-29T15:28:55.238Z,13.50
2019-03-29T15:31:30.407Z,13.50
2019-03-29T15:34:05.667Z,13.60
2019-03-29T15:36:42.223Z,13.70
2019-03-29T15:39:17.431Z,13.70
2019-03-29T15:41:52.589Z,13.80
2019-03-29T15:44:28.268Z,13.80
2019-03-29T15:47:03.416Z,13.80
2019-03-29T15:49:38.577Z,13.60
2019-03-29T15:52:13.664Z,13.50
2019-03-29T15:54:48.966Z,13.50
2019-03-29T15:57:24.107Z,13.50
2019-03-29T16:02:34.245Z,13.30
2019-03-29T16:05:11.935Z,13.30
2019-03-29T16:07:47.458Z,13.30
2019-03-29T16:10:23.970Z,13.20
2019-03-29T16:13:01.698Z,13.20
2019-03-29T16:15:38.496Z,13.10
2019-03-29T16:18:13.782Z,13.10
2019-03-29T16:20:49.209Z,13.00
2019-03-29T16:23:24.338Z,12.90
2019-03-29T16:25:59.802Z,13.00
2019-03-29T16:28:34.969Z,12.90
2019-03-29T16:31:10.999Z,12.80
2019-03-29T16:36:21.722Z,12.80
2019-03-29T16:38:57.076Z,12.80
2019-03-29T16:41:32.575Z,12.80
2019-03-29T16:44:08.871Z,12.80
2019-03-29T16:46:44.011Z,12.80
2019-03-29T16:49:20.170Z,12.70
2019-03-29T16:51:55.240Z,12.70
2019-03-29T16:57:05.463Z,12.60
2019-03-29T17:07:26.009Z,12.30
2019-03-29T17:10:01.400Z,12.20
2019-03-29T17:12:37.530Z,12.20
2019-03-29T17:15:13.001Z,12.20
2019-03-29T17:28:09.014Z,11.90
2019-03-29T17:30:45.848Z,12.00
2019-03-29T17:41:07.490Z,11.70
2019-03-29T17:43:44.547Z,11.70
2019-03-29T17:48:54.558Z,11.60
2019-03-29T17:51:30.332Z,11.50
2019-03-29T17:56:40.419Z,11.50
2019-03-29T18:12:18.475Z,11.30
2019-03-29T18:17:28.652Z,11.30
2019-03-29T18:20:05.745Z,11.30
2019-03-29T18:25:16.791Z,11.20
2019-03-29T18:35:39.812Z,11.20
2019-03-29T18:58:57.339Z,10.80
2019-03-29T19:09:17.358Z,10.50
2019-03-29T19:11:53.386Z,10.40
2019-03-29T19:19:38.090Z,10.20
2019-03-29T19:37:44.005Z,9.80
2019-03-29T19:42:59.738Z,9.70
2019-03-29T19:53:40.957Z,9.60
2019-03-29T19:58:52.246Z,9.50
2019-03-29T20:04:03.664Z,9.40
2019-03-29T20:17:00.065Z,9.20
2019-03-29T20:35:07.394Z,9.00
2019-03-29T20:37:44.291Z,9.00
2019-03-29T20:40:20.174Z,9.00
2019-03-29T20:58:30.043Z,8.70
2019-03-29T21:14:06.522Z,8.70
2019-03-29T21:16:45.962Z,8.60
2019-03-29T21:19:21.060Z,8.60
2019-03-29T21:21:56.764Z,8.60
2019-03-29T21:24:31.855Z,8.60
2019-03-29T21:27:07.279Z,8.50
2019-03-29T21:29:44.163Z,8.50
2019-03-29T21:32:19.750Z,8.50
2019-03-29T21:34:54.845Z,8.40
2019-03-29T21:42:41.435Z,8.30
2019-03-29T22:11:12.275Z,8.00
2019-03-29T22:13:47.396Z,8.10
2019-03-29T22:16:22.585Z,8.00
2019-03-29T22:18:57.861Z,8.10
2019-03-29T22:21:35.192Z,8.10
2019-03-29T22:39:43.139Z,8.00
2019-03-29T23:23:56.247Z,7.60
2019-03-29T23:26:31.591Z,7.60
2019-03-29T23:29:08.162Z,7.50
2019-03-29T23:31:43.249Z,7.50
2019-03-29T23:34:18.646Z,7.40
2019-03-29T23:36:55.032Z,7.50
2019-03-29T23:39:30.559Z,7.50
